Time;durP1;ratioP1;P1;durP2;ratioP2;P2;SDS_P1;SDS_P2;PMS_P1;PMS_P2;Temp;Humidity;BMP_temperature;BMP_pressure;BME280_temperature;BME280_humidity;BME280_pressure;Samples;Min_cycle;Max_cycle;Signal;HPM_P1;HPM_P2
2021/11/02 00:01:41;;;;;;;0.30;0.30;;;7.70;99.90;;;;;;4978942;28;20504;-78
2021/11/02 00:04:08;;;;;;;0.30;0.30;;;7.70;99.90;;;;;;4978025;28;20054;-77
2021/11/02 00:06:35;;;;;;;0.30;0.28;;;7.70;99.90;;;;;;4978430;28;20087;-78
2021/11/02 00:09:05;;;;;;;0.73;0.20;;;7.70;99.90;;;;;;4979206;28;20058;-77
2021/11/02 00:11:34;;;;;;;0.30;0.30;;;7.60;99.90;;;;;;4987889;28;20027;-78
2021/11/02 00:14:06;;;;;;;0.90;0.30;;;7.60;99.90;;;;;;4997735;28;20080;-79
2021/11/02 00:16:35;;;;;;;0.28;0.22;;;7.60;99.90;;;;;;4997025;28;20018;-79
2021/11/02 00:19:04;;;;;;;0.10;0.10;;;7.70;99.90;;;;;;4998518;28;20045;-77
2021/11/02 00:21:33;;;;;;;0.95;0.30;;;7.70;99.90;;;;;;5004701;28;20021;-78
2021/11/02 00:25:04;;;;;;;0.30;0.13;;;7.70;99.90;;;;;;5015394;28;20021;-77
2021/11/02 00:26:55;;;;;;;0.10;0.10;;;7.70;99.90;;;;;;5007759;28;20096;-78
2021/11/02 00:29:20;;;;;;;0.38;0.38;;;7.70;99.90;;;;;;5016272;28;20044;-78
2021/11/02 00:31:46;;;;;;;0.25;0.25;;;7.70;99.90;;;;;;5003257;28;20027;-78
2021/11/02 00:34:12;;;;;;;0.10;0.10;;;7.70;99.90;;;;;;4977095;28;20449;-78
2021/11/02 00:36:38;;;;;;;0.22;0.20;;;7.70;99.90;;;;;;4977348;28;20033;-78
2021/11/02 00:39:04;;;;;;;0.57;0.32;;;7.70;99.90;;;;;;4962466;28;20027;-78
2021/11/02 00:41:30;;;;;;;0.30;0.30;;;7.70;99.90;;;;;;4965338;28;20033;-78
2021/11/02 00:43:56;;;;;;;0.30;0.30;;;7.70;99.90;;;;;;5003802;28;20113;-78
2021/11/02 00:46:34;;;;;;;0.10;0.10;;;7.70;99.90;;;;;;5001320;28;20336;-78
2021/11/02 00:49:01;;;;;;;0.22;0.10;;;7.70;99.90;;;;;;5000522;28;20053;-79
2021/11/02 00:51:28;;;;;;;0.17;0.17;;;7.70;99.90;;;;;;4989956;28;20026;-79
2021/11/02 00:53:54;;;;;;;0.85;0.10;;;7.70;99.90;;;;;;5008507;28;20085;-79
2021/11/02 00:56:20;;;;;;;0.20;0.20;;;7.80;99.90;;;;;;5008405;28;20046;-77
2021/11/02 00:58:46;;;;;;;0.32;0.30;;;7.70;99.90;;;;;;5008934;28;20022;-78
2021/11/02 01:01:13;;;;;;;0.52;0.20;;;7.80;99.90;;;;;;5002594;28;20088;-77
2021/11/02 01:03:38;;;;;;;0.20;0.20;;;7.70;99.90;;;;;;5001814;28;20023;-78
2021/11/02 01:06:05;;;;;;;0.30;0.20;;;7.70;99.90;;;;;;5003996;28;20387;-79
2021/11/02 01:08:30;;;;;;;0.28;0.10;;;7.80;99.90;;;;;;5002365;28;20141;-78
2021/11/02 01:10:57;;;;;;;0.47;0.30;;;7.80;99.90;;;;;;5001471;28;20454;-77
2021/11/02 01:13:23;;;;;;;0.47;0.40;;;7.80;99.90;;;;;;4993956;28;20169;-77
2021/11/02 01:15:49;;;;;;;0.40;0.20;;;7.80;99.90;;;;;;4985051;28;20019;-77
2021/11/02 01:18:15;;;;;;;0.28;0.28;;;7.70;99.90;;;;;;4968280;28;20483;-78
2021/11/02 01:20:41;;;;;;;0.40;0.40;;;7.70;99.90;;;;;;5011470;28;20045;-78
2021/11/02 01:23:07;;;;;;;0.38;0.30;;;7.70;99.90;;;;;;5003489;28;20170;-76
2021/11/02 01:25:34;;;;;;;0.30;0.30;;;7.70;99.90;;;;;;5001835;28;20033;-76
2021/11/02 01:28:00;;;;;;;1.80;0.50;;;7.70;99.90;;;;;;5000059;28;20030;-76
2021/11/02 01:30:26;;;;;;;0.35;0.30;;;7.80;99.90;;;;;;4999151;28;20053;-77
2021/11/02 01:32:52;;;;;;;0.40;0.22;;;7.80;99.90;;;;;;4999161;28;20023;-78
2021/11/02 01:35:18;;;;;;;0.52;0.32;;;7.80;99.90;;;;;;4998822;28;20033;-79
2021/11/02 01:37:45;;;;;;;0.75;0.32;;;7.70;99.90;;;;;;4999830;28;20025;-79
2021/11/02 01:40:14;;;;;;;0.22;0.22;;;7.70;99.90;;;;;;5002497;28;20022;-78
2021/11/02 01:42:41;;;;;;;0.43;0.30;;;7.60;99.90;;;;;;5003056;28;20028;-78
2021/11/02 01:45:09;;;;;;;0.50;0.50;;;7.50;99.90;;;;;;4969086;28;20517;-78
2021/11/02 01:47:39;;;;;;;1.30;0.85;;;7.50;99.90;;;;;;4979175;28;20062;-79
2021/11/02 01:50:05;;;;;;;0.52;0.28;;;7.40;99.90;;;;;;4987746;28;20116;-79
2021/11/02 01:52:33;;;;;;;0.57;0.50;;;7.40;99.90;;;;;;5015941;28;20077;-77
2021/11/02 01:54:59;;;;;;;0.40;0.30;;;7.40;99.90;;;;;;5000275;28;20243;-78
2021/11/02 01:57:24;;;;;;;0.20;0.20;;;7.40;99.90;;;;;;4978551;28;20019;-78
2021/11/02 01:59:51;;;;;;;0.45;0.20;;;7.40;99.90;;;;;;4980108;28;20058;-79
2021/11/02 02:02:42;;;;;;;0.40;0.40;;;7.40;99.90;;;;;;4961101;28;20030;-79
2021/11/02 02:05:21;;;;;;;0.52;0.40;;;7.40;99.90;;;;;;4968922;28;20049;-79
2021/11/02 02:08:06;;;;;;;0.60;0.60;;;7.30;99.90;;;;;;4998869;28;20071;-78
2021/11/02 02:11:02;;;;;;;1.13;0.45;;;7.30;99.90;;;;;;4978976;28;20030;-78
2021/11/02 02:13:50;;;;;;;2.45;0.45;;;7.20;99.90;;;;;;4999835;28;20026;-77
2021/11/02 02:16:24;;;;;;;0.82;0.55;;;7.20;99.90;;;;;;4988643;28;20023;-77
2021/11/02 02:19:11;;;;;;;0.70;0.70;;;7.10;99.90;;;;;;4975779;28;20026;-77
2021/11/02 02:21:37;;;;;;;1.13;0.52;;;7.10;99.90;;;;;;5015152;28;20030;-77
2021/11/02 02:24:51;;;;;;;0.57;0.40;;;7.00;99.90;;;;;;5019275;28;20546;-77
2021/11/02 02:27:38;;;;;;;0.40;0.40;;;7.00;99.90;;;;;;4970260;28;20499;-77
2021/11/02 02:30:11;;;;;;;0.88;0.60;;;7.00;99.90;;;;;;5003016;28;20061;-78
2021/11/02 02:32:42;;;;;;;0.40;0.40;;;7.00;99.90;;;;;;4998076;28;20077;-78
2021/11/02 02:35:11;;;;;;;0.90;0.60;;;7.00;99.90;;;;;;4980894;28;20037;-78
2021/11/02 02:37:39;;;;;;;0.82;0.45;;;7.00;99.90;;;;;;4995132;28;20352;-77
2021/11/02 02:40:07;;;;;;;1.95;0.60;;;7.00;99.90;;;;;;4996523;28;20022;-77
2021/11/02 02:42:34;;;;;;;0.43;0.38;;;7.00;99.90;;;;;;4995822;28;20026;-78
2021/11/02 02:45:00;;;;;;;0.40;0.40;;;7.00;99.90;;;;;;4996984;28;20511;-78
2021/11/02 02:47:26;;;;;;;0.50;0.40;;;7.00;99.90;;;;;;4983911;28;20027;-78
2021/11/02 02:49:55;;;;;;;2.83;0.68;;;7.00;99.90;;;;;;5003367;28;20038;-79
2021/11/02 02:52:23;;;;;;;2.47;0.70;;;7.00;99.90;;;;;;5003710;28;20042;-78
2021/11/02 02:54:51;;;;;;;1.55;0.65;;;6.90;99.90;;;;;;4999100;28;20022;-79
2021/11/02 02:57:20;;;;;;;0.65;0.50;;;7.00;99.90;;;;;;4997971;28;20045;-77
2021/11/02 02:59:47;;;;;;;1.73;0.60;;;7.00;99.90;;;;;;4996943;28;20023;-78
2021/11/02 03:02:14;;;;;;;0.80;0.80;;;7.00;99.90;;;;;;4996342;28;20479;-80
2021/11/02 03:04:44;;;;;;;2.03;0.70;;;7.00;99.90;;;;;;4996342;28;20027;-77
2021/11/02 03:07:10;;;;;;;0.95;0.60;;;6.90;99.90;;;;;;4995750;28;20452;-79
2021/11/02 03:09:36;;;;;;;1.13;0.70;;;6.90;99.90;;;;;;4996278;28;20109;-77
2021/11/02 03:12:04;;;;;;;0.77;0.35;;;6.90;99.90;;;;;;4998709;28;20026;-77
2021/11/02 03:14:47;;;;;;;2.63;0.40;;;6.90;99.90;;;;;;5003398;28;20030;-77
2021/11/02 03:17:19;;;;;;;3.13;0.60;;;6.90;99.90;;;;;;4998415;28;20023;-79
2021/11/02 03:55:59;;;;;;;1.33;0.70;;;6.60;99.90;;;;;;5016401;28;20033;-77
2021/11/02 03:58:50;;;;;;;2.65;0.68;;;6.60;99.90;;;;;;5008751;28;20050;-78
2021/11/02 04:01:35;;;;;;;1.50;0.50;;;6.50;99.90;;;;;;4975619;28;20428;-76
2021/11/02 04:29:41;;;;;;;1.83;0.35;;;6.50;99.90;;;;;;5014846;28;20398;-78
2021/11/02 04:32:42;;;;;;;1.13;0.67;;;6.40;99.90;;;;;;4977680;28;20054;-78
2021/11/02 05:57:23;;;;;;;0.82;0.43;;;6.40;99.90;;;;;;5028769;28;20088;-79
2021/11/02 06:11:04;;;;;;;0.50;0.50;;;6.70;99.90;;;;;;5005749;28;20026;-79
2021/11/02 06:28:05;;;;;;;2.15;0.55;;;7.00;99.90;;;;;;5025006;28;20048;-79
2021/11/02 06:48:28;;;;;;;1.38;0.98;;;7.50;99.90;;;;;;4985151;28;20043;-80
2021/11/02 06:51:23;;;;;;;1.38;0.60;;;7.50;99.90;;;;;;4999596;28;20121;-78
2021/11/02 07:19:08;;;;;;;1.98;0.60;;;7.90;99.90;;;;;;5005839;28;20029;-80
2021/11/02 07:27:29;;;;;;;1.52;0.43;;;8.00;99.90;;;;;;5010637;28;20097;-79
2021/11/02 08:45:54;;;;;;;2.30;0.40;;;10.50;93.90;;;;;;5000218;28;20437;-79
2021/11/02 08:48:20;;;;;;;0.70;0.38;;;10.60;93.60;;;;;;4984441;28;20038;-79
2021/11/02 08:50:52;;;;;;;1.40;0.43;;;10.60;93.30;;;;;;5009197;28;20026;-79
2021/11/02 08:53:23;;;;;;;3.25;0.45;;;10.70;92.70;;;;;;4981553;28;20398;-80
2021/11/02 08:55:51;;;;;;;1.60;0.40;;;10.80;92.90;;;;;;4981726;28;20054;-80
2021/11/02 08:58:19;;;;;;;0.75;0.40;;;11.00;92.50;;;;;;4980333;28;20475;-79
2021/11/02 09:00:45;;;;;;;1.23;0.30;;;11.10;91.80;;;;;;4986489;28;20003;-79
2021/11/02 09:03:20;;;;;;;1.92;0.60;;;11.30;91.30;;;;;;5000048;28;20038;-79
2021/11/02 09:06:03;;;;;;;0.38;0.30;;;11.50;91.10;;;;;;5007415;28;20026;-79
2021/11/02 09:08:29;;;;;;;1.65;0.40;;;11.70;90.80;;;;;;5007606;28;20132;-79
2021/11/02 09:11:00;;;;;;;2.25;0.40;;;11.70;90.20;;;;;;5009297;28;20036;-78
2021/11/02 09:13:27;;;;;;;1.00;0.67;;;11.80;90.10;;;;;;5005384;28;20022;-79
2021/11/02 09:16:02;;;;;;;0.88;0.80;;;12.00;90.00;;;;;;4990181;28;20033;-79
2021/11/02 09:18:29;;;;;;;0.90;0.50;;;12.30;89.50;;;;;;5005851;28;20027;-79
2021/11/02 09:20:56;;;;;;;1.58;0.60;;;13.00;85.70;;;;;;5011800;28;20026;-79
2021/11/02 09:23:23;;;;;;;2.03;0.50;;;13.70;81.90;;;;;;5002914;28;20423;-80
2021/11/02 09:25:51;;;;;;;1.88;0.73;;;13.70;79.00;;;;;;4991498;28;20068;-79
2021/11/02 09:28:22;;;;;;;1.75;0.80;;;13.60;79.00;;;;;;5005960;28;20026;-79
2021/11/02 09:30:47;;;;;;;2.33;0.63;;;14.00;77.00;;;;;;4992784;28;20057;-79
2021/11/02 09:33:14;;;;;;;3.75;0.60;;;14.40;73.90;;;;;;5007419;28;20026;-80
2021/11/02 09:35:40;;;;;;;5.15;0.90;;;14.20;72.40;;;;;;5005774;28;20050;-80
2021/11/02 09:38:13;;;;;;;0.55;0.30;;;13.80;73.20;;;;;;4987052;28;20439;-80
2021/11/02 09:41:01;;;;;;;3.55;0.68;;;13.50;74.20;;;;;;5008529;28;20026;-81
2021/11/02 09:43:48;;;;;;;3.45;0.50;;;13.20;74.20;;;;;;4998006;28;20022;-79
2021/11/02 09:47:10;;;;;;;0.90;0.50;;;13.20;74.90;;;;;;4991056;28;20031;-80
2021/11/02 09:49:48;;;;;;;0.95;0.52;;;13.10;75.30;;;;;;4984721;28;20081;-79
2021/11/02 09:52:15;;;;;;;1.05;0.45;;;13.10;75.60;;;;;;5008541;28;20471;-80
2021/11/02 09:54:59;;;;;;;2.53;0.50;;;13.10;74.20;;;;;;4995615;28;20093;-79
2021/11/02 09:58:07;;;;;;;1.23;0.75;;;13.10;73.20;;;;;;4987208;28;20027;-80
2021/11/02 10:01:01;;;;;;;1.95;0.52;;;13.00;73.60;;;;;;4956966;28;20057;-80
2021/11/02 10:03:43;;;;;;;0.85;0.50;;;13.10;73.60;;;;;;4983672;28;20023;-79
2021/11/02 10:06:16;;;;;;;;;;;13.00;73.30;;;;;;4985128;28;20483;-80
2021/11/02 10:08:46;;;;;;;1.25;0.40;;;13.10;73.20;;;;;;5000627;28;19909;-79
2021/11/02 10:11:45;;;;;;;1.05;0.30;;;13.10;72.80;;;;;;5003289;28;20026;-79
2021/11/02 10:14:34;;;;;;;2.92;0.60;;;13.10;72.00;;;;;;4996718;28;20019;-80
2021/11/02 10:17:31;;;;;;;1.60;0.50;;;13.00;71.30;;;;;;4982354;28;20025;-79
2021/11/02 10:20:38;;;;;;;2.83;0.73;;;12.90;72.10;;;;;;5010603;28;20411;-79
2021/11/02 10:23:42;;;;;;;2.05;0.60;;;13.00;69.90;;;;;;5001190;28;20030;-80
2021/11/02 10:26:23;;;;;;;1.70;0.60;;;13.10;69.20;;;;;;5001792;28;20030;-79
2021/11/02 10:29:22;;;;;;;1.75;0.50;;;13.20;69.10;;;;;;5002886;28;20578;-80
2021/11/02 10:32:14;;;;;;;1.55;0.50;;;13.30;69.00;;;;;;5002439;28;20022;-79
2021/11/02 10:34:44;;;;;;;2.30;0.30;;;13.30;66.00;;;;;;4984106;28;20031;-79
2021/11/02 10:37:22;;;;;;;1.60;0.47;;;13.20;67.40;;;;;;4964969;28;20396;-80
2021/11/02 10:40:16;;;;;;;2.55;0.77;;;13.30;68.20;;;;;;4967768;28;20047;-80
2021/11/02 10:43:09;;;;;;;2.30;0.77;;;13.20;68.20;;;;;;4987808;28;20043;-79
2021/11/02 10:45:38;;;;;;;2.65;0.60;;;13.20;68.10;;;;;;4986029;28;20061;-78
2021/11/02 10:48:11;;;;;;;2.20;0.70;;;13.40;68.00;;;;;;4989163;28;20031;-80
2021/11/02 10:50:47;;;;;;;3.03;0.40;;;13.50;65.40;;;;;;5000520;28;20432;-79
2021/11/02 10:53:31;;;;;;;1.75;0.50;;;13.60;64.40;;;;;;4985219;28;20142;-79
2021/11/02 10:56:08;;;;;;;3.13;0.65;;;13.60;65.10;;;;;;4985347;28;20030;-79
2021/11/02 10:58:53;;;;;;;2.22;0.60;;;13.60;65.10;;;;;;5004016;28;20037;-80
2021/11/02 11:01:22;;;;;;;1.55;0.60;;;13.60;65.30;;;;;;5007121;28;20077;-79
2021/11/02 11:03:48;;;;;;;5.13;0.82;;;13.70;65.60;;;;;;4983372;28;20487;-79
2021/11/02 11:06:15;;;;;;;2.42;0.60;;;13.90;64.60;;;;;;4965774;28;20050;-77
2021/11/02 11:08:45;;;;;;;3.50;0.57;;;13.90;63.70;;;;;;4983897;28;20468;-79
2021/11/02 11:11:18;;;;;;;0.82;0.52;;;13.80;63.80;;;;;;4964592;28;20039;-79
2021/11/02 11:13:49;;;;;;;2.42;0.80;;;13.50;64.30;;;;;;4982898;28;20023;-79
2021/11/02 11:16:16;;;;;;;3.97;0.80;;;13.20;65.40;;;;;;4982122;28;20476;-78
2021/11/02 11:19:02;;;;;;;2.85;0.82;;;13.00;66.20;;;;;;4987127;28;20031;-80
2021/11/02 11:21:33;;;;;;;1.58;0.50;;;13.00;67.30;;;;;;4983306;28;20045;-80
2021/11/02 11:24:34;;;;;;;3.03;0.60;;;13.10;65.40;;;;;;4966904;28;20098;-80
2021/11/02 11:27:07;;;;;;;1.17;0.40;;;13.30;66.20;;;;;;4984999;28;20051;-81
2021/11/02 11:29:43;;;;;;;2.85;0.68;;;13.50;65.10;;;;;;4986801;28;20034;-81
2021/11/02 11:32:09;;;;;;;3.88;0.93;;;13.70;64.20;;;;;;4968615;28;20058;-79
2021/11/02 11:34:42;;;;;;;2.00;0.60;;;13.70;63.60;;;;;;4990409;28;20035;-78
2021/11/02 11:37:09;;;;;;;;;;;13.70;64.50;;;;;;4990253;28;20440;-79
2021/11/02 11:39:35;;;;;;;2.65;0.70;;;13.60;63.70;;;;;;4985235;28;19906;-79
2021/11/02 11:42:01;;;;;;;4.63;1.13;;;13.50;63.70;;;;;;4986156;28;20023;-79
2021/11/02 11:44:28;;;;;;;1.60;0.47;;;13.30;64.00;;;;;;4985108;28;20061;-80
2021/11/02 11:47:08;;;;;;;2.10;0.60;;;13.10;65.30;;;;;;4968519;28;20041;-80
2021/11/02 11:49:38;;;;;;;1.02;0.45;;;12.80;69.30;;;;;;4985646;28;20494;-80
2021/11/02 11:52:06;;;;;;;4.97;1.10;;;12.40;71.00;;;;;;4997581;28;20026;-82
2021/11/02 11:54:47;;;;;;;6.13;0.90;;;12.00;73.30;;;;;;5022071;28;20030;-80
2021/11/02 11:57:28;;;;;;;2.35;0.68;;;11.70;75.10;;;;;;4984252;28;20378;-79
2021/11/02 12:00:03;;;;;;;4.35;0.80;;;11.50;77.90;;;;;;4982822;28;20034;-78
2021/11/02 12:02:46;;;;;;;4.40;0.93;;;11.30;80.80;;;;;;4992595;28;20106;-79
2021/11/02 12:05:17;;;;;;;1.13;1.00;;;11.20;82.40;;;;;;4993557;28;20050;-80
2021/11/02 12:08:16;;;;;;;5.13;1.30;;;11.20;83.80;;;;;;5010893;28;20041;-79
2021/11/02 12:10:43;;;;;;;3.20;1.60;;;11.40;84.20;;;;;;5012791;28;20034;-80
2021/11/02 12:13:11;;;;;;;4.05;1.00;;;11.50;82.70;;;;;;5011143;28;20085;-78
2021/11/02 12:15:42;;;;;;;2.15;0.88;;;11.70;82.30;;;;;;5014950;28;20069;-79
2021/11/02 12:18:10;;;;;;;3.93;0.73;;;11.80;82.80;;;;;;4981888;28;20090;-77
2021/11/02 12:20:39;;;;;;;1.35;0.77;;;12.10;81.30;;;;;;5020517;28;20046;-79
2021/11/02 12:23:18;;;;;;;2.88;1.02;;;12.30;81.10;;;;;;5014997;28;20017;-79
2021/11/02 12:25:53;;;;;;;2.60;0.65;;;12.70;79.00;;;;;;4998582;28;20650;-78
2021/11/02 12:28:28;;;;;;;2.78;1.10;;;12.90;77.80;;;;;;5013385;28;20061;-79
2021/11/02 12:30:58;;;;;;;2.65;1.40;;;13.10;77.70;;;;;;5013090;28;20007;-78
2021/11/02 12:33:27;;;;;;;1.55;1.02;;;13.30;77.10;;;;;;5012368;28;20065;-79
2021/11/02 12:35:54;;;;;;;1.45;0.70;;;13.40;75.70;;;;;;4996348;28;20030;-79
2021/11/02 12:38:40;;;;;;;0.68;0.63;;;13.40;75.40;;;;;;5000505;28;20035;-78
2021/11/02 12:41:18;;;;;;;2.17;0.60;;;13.40;74.20;;;;;;4998984;28;20041;-78
2021/11/02 12:43:45;;;;;;;1.42;0.57;;;13.10;72.70;;;;;;4999657;28;20023;-79
2021/11/02 12:46:10;;;;;;;2.88;1.65;;;12.70;73.30;;;;;;4999643;28;20019;-77
2021/11/02 12:48:38;;;;;;;2.88;0.93;;;12.50;74.30;;;;;;4987193;28;20053;-79
2021/11/02 12:51:06;;;;;;;1.38;0.85;;;12.20;75.50;;;;;;5026345;28;20027;-79
2021/11/02 12:53:37;;;;;;;1.75;0.68;;;12.10;76.20;;;;;;5034847;28;20040;-79
2021/11/02 12:56:15;;;;;;;1.17;0.77;;;12.00;77.20;;;;;;5017262;28;20446;-79
2021/11/02 12:58:43;;;;;;;1.95;0.60;;;12.00;77.50;;;;;;5010742;28;20034;-79
2021/11/02 13:01:09;;;;;;;2.03;0.57;;;12.00;77.90;;;;;;4977435;28;20043;-80
2021/11/02 13:03:41;;;;;;;3.92;0.73;;;12.00;77.80;;;;;;4994442;28;20093;-79
2021/11/02 13:06:09;;;;;;;;;;;12.00;78.20;;;;;;4994351;28;20049;-79
2021/11/02 13:08:39;;;;;;;0.90;0.60;;;12.00;78.90;;;;;;5002717;28;19974;-79
2021/11/02 13:11:26;;;;;;;1.60;0.73;;;12.00;79.20;;;;;;5013960;28;20433;-80
2021/11/02 13:14:04;;;;;;;1.98;0.70;;;12.00;79.30;;;;;;5013382;28;20037;-79
2021/11/02 13:16:51;;;;;;;2.65;0.63;;;12.10;79.10;;;;;;5013985;28;20018;-79
2021/11/02 13:19:17;;;;;;;2.33;1.10;;;12.30;77.80;;;;;;5017945;28;20025;-81
2021/11/02 13:21:45;;;;;;;3.55;0.88;;;12.20;78.20;;;;;;5003609;28;20014;-78
2021/11/02 13:24:16;;;;;;;2.95;0.77;;;12.30;78.70;;;;;;5017169;28;20022;-80
2021/11/02 13:26:47;;;;;;;2.55;0.70;;;12.30;78.30;;;;;;5016468;28;20036;-80
2021/11/02 13:29:23;;;;;;;0.85;0.60;;;12.30;78.30;;;;;;5007991;28;20054;-79
2021/11/02 13:31:51;;;;;;;5.35;0.88;;;12.30;78.40;;;;;;4999069;28;20090;-78
2021/11/02 13:34:35;;;;;;;0.60;0.47;;;12.40;78.10;;;;;;4992247;28;20054;-79
2021/11/02 13:37:06;;;;;;;5.10;0.98;;;12.50;78.50;;;;;;4994844;28;20027;-79
2021/11/02 13:39:55;;;;;;;0.57;0.55;;;12.60;78.40;;;;;;5003609;28;20558;-78
2021/11/02 13:42:44;;;;;;;1.33;0.40;;;12.70;77.90;;;;;;4999977;28;20050;-79
2021/11/02 13:45:12;;;;;;;2.53;0.63;;;12.80;77.20;;;;;;5001334;28;20074;-78
2021/11/02 13:47:40;;;;;;;1.27;0.45;;;12.90;77.20;;;;;;5018045;28;20046;-79
2021/11/02 13:50:06;;;;;;;3.83;0.50;;;12.90;77.30;;;;;;5016744;28;20061;-80
2021/11/02 13:52:33;;;;;;;1.63;0.50;;;12.90;76.90;;;;;;5035481;28;20010;-80
2021/11/02 13:55:01;;;;;;;1.58;0.60;;;12.90;76.20;;;;;;5034338;28;20026;-80
2021/11/02 13:57:27;;;;;;;1.33;0.75;;;12.80;76.20;;;;;;5033497;28;20010;-80
2021/11/02 13:59:52;;;;;;;0.55;0.40;;;12.50;75.70;;;;;;5025585;28;20018;-79
2021/11/02 14:02:21;;;;;;;0.63;0.32;;;12.40;76.50;;;;;;5009908;28;20023;-79
2021/11/02 14:04:49;;;;;;;1.00;0.52;;;12.20;74.00;;;;;;5006998;28;20105;-81
2021/11/02 14:07:32;;;;;;;1.65;0.30;;;12.20;74.30;;;;;;5007142;28;20030;-81
2021/11/02 14:10:00;;;;;;;;;;;12.40;73.30;;;;;;4991104;28;20095;-79
2021/11/02 14:12:40;;;;;;;1.05;0.50;;;12.40;73.00;;;;;;5006626;28;19913;-81
2021/11/02 14:15:12;;;;;;;0.98;0.60;;;12.50;73.50;;;;;;5006646;28;20523;-80
2021/11/02 14:17:51;;;;;;;0.98;0.40;;;12.60;73.10;;;;;;5005113;28;20023;-79
2021/11/02 14:20:37;;;;;;;1.17;0.68;;;12.60;72.90;;;;;;5011273;28;20030;-80
2021/11/02 14:23:06;;;;;;;1.27;0.35;;;12.60;72.90;;;;;;5021515;28;20029;-80
2021/11/02 14:25:40;;;;;;;0.50;0.40;;;12.50;71.20;;;;;;5022874;28;20038;-80
2021/11/02 14:28:07;;;;;;;1.85;0.50;;;12.40;71.70;;;;;;5023329;28;20026;-80
2021/11/02 14:30:37;;;;;;;2.40;0.35;;;12.40;71.50;;;;;;5017525;28;20052;-79
2021/11/02 14:33:08;;;;;;;0.38;0.30;;;12.30;70.80;;;;;;4983617;28;20066;-80
2021/11/02 14:35:56;;;;;;;2.15;0.40;;;12.00;71.80;;;;;;4981463;28;20059;-78
2021/11/02 14:38:25;;;;;;;0.85;0.40;;;11.80;72.80;;;;;;4983077;28;20030;-80
2021/11/02 14:40:57;;;;;;;3.78;1.25;;;11.60;73.80;;;;;;4984500;28;20086;-80
2021/11/02 14:43:33;;;;;;;0.52;0.20;;;11.50;74.60;;;;;;4986063;28;20056;-79
2021/11/02 14:46:03;;;;;;;1.70;0.43;;;11.40;75.40;;;;;;5004840;28;20445;-80
2021/11/02 14:49:00;;;;;;;0.90;0.50;;;11.30;75.90;;;;;;4999663;28;20081;-79
2021/11/02 14:51:27;;;;;;;1.17;0.50;;;11.20;76.30;;;;;;5003982;28;20039;-80
2021/11/02 14:53:54;;;;;;;0.60;0.50;;;11.00;76.50;;;;;;4969427;28;20030;-80
2021/11/02 14:56:32;;;;;;;1.65;0.60;;;10.90;77.00;;;;;;4987941;28;20440;-80
2021/11/02 14:59:02;;;;;;;1.38;0.38;;;10.90;77.30;;;;;;4986691;28;20453;-80
2021/11/02 15:01:37;;;;;;;0.77;0.30;;;10.90;76.90;;;;;;4994157;28;20112;-80
2021/11/02 15:04:06;;;;;;;0.43;0.30;;;10.90;77.20;;;;;;5002880;28;20032;-80
2021/11/02 15:06:38;;;;;;;0.65;0.40;;;10.80;77.60;;;;;;5005402;28;20053;-80
2021/11/02 15:09:07;;;;;;;0.82;0.40;;;10.70;78.20;;;;;;5007475;28;20038;-78
2021/11/02 15:11:33;;;;;;;1.98;0.38;;;10.60;78.70;;;;;;5012540;28;20030;-79
2021/11/02 15:14:03;;;;;;;0.95;0.43;;;10.60;79.00;;;;;;4998119;28;20085;-79
2021/11/02 15:16:30;;;;;;;0.60;0.40;;;10.50;79.20;;;;;;4997672;28;20022;-78
2021/11/02 15:19:06;;;;;;;0.95;0.47;;;10.30;79.70;;;;;;4997113;28;20034;-80
2021/11/02 15:21:38;;;;;;;1.25;0.40;;;10.30;80.20;;;;;;5007107;28;20101;-80
2021/11/02 15:24:27;;;;;;;2.08;0.50;;;10.10;80.70;;;;;;5031929;28;20017;-79
2021/11/02 15:27:13;;;;;;;3.20;0.82;;;10.00;81.50;;;;;;5031886;28;20094;-78
2021/11/02 15:29:51;;;;;;;1.10;1.00;;;10.00;81.90;;;;;;5015853;28;20022;-79
2021/11/02 15:32:23;;;;;;;2.63;0.85;;;10.00;82.50;;;;;;5012091;28;20075;-78
2021/11/02 15:34:56;;;;;;;0.65;0.55;;;9.90;83.00;;;;;;4992361;28;20058;-79
2021/11/02 15:37:27;;;;;;;1.05;0.65;;;9.90;83.30;;;;;;4974473;28;20053;-80
2021/11/02 15:39:58;;;;;;;0.47;0.47;;;9.80;83.40;;;;;;4994051;28;20031;-79
2021/11/02 15:42:32;;;;;;;1.27;0.50;;;9.70;83.90;;;;;;4996968;28;20019;-79
2021/11/02 15:45:04;;;;;;;0.60;0.60;;;9.70;84.50;;;;;;4979584;28;20015;-79
2021/11/02 15:47:33;;;;;;;1.15;0.70;;;9.60;84.90;;;;;;5004892;28;20090;-78
2021/11/02 15:50:02;;;;;;;4.82;0.88;;;9.50;85.30;;;;;;5006783;28;20018;-79
2021/11/02 15:52:36;;;;;;;0.80;0.57;;;9.50;85.90;;;;;;5012884;28;20183;-79
2021/11/02 15:55:05;;;;;;;1.17;0.70;;;9.40;86.30;;;;;;5014438;28;20037;-80
2021/11/02 15:57:44;;;;;;;2.95;1.35;;;9.40;86.70;;;;;;5032688;28;20014;-79
2021/11/02 16:00:12;;;;;;;2.00;1.00;;;9.40;87.00;;;;;;5014977;28;20017;-79
2021/11/02 16:02:39;;;;;;;1.83;1.13;;;9.50;87.30;;;;;;5014098;28;20029;-78
2021/11/02 16:05:07;;;;;;;1.48;0.95;;;9.50;87.40;;;;;;5004647;28;20052;-80
2021/11/02 16:07:33;;;;;;;3.38;0.80;;;9.50;87.80;;;;;;5012319;28;20031;-80
2021/11/02 16:10:00;;;;;;;1.20;1.00;;;9.50;88.20;;;;;;5009818;28;20033;-78
2021/11/02 16:12:37;;;;;;;0.98;0.80;;;9.50;88.50;;;;;;5010898;28;20036;-79
2021/11/02 16:15:28;;;;;;;3.60;1.60;;;9.60;88.80;;;;;;4991016;28;20034;-79
2021/11/02 16:17:58;;;;;;;1.30;1.10;;;9.60;89.00;;;;;;5007770;28;20018;-79
2021/11/02 16:20:31;;;;;;;2.03;1.15;;;9.60;88.50;;;;;;5017257;28;20046;-80
2021/11/02 16:23:07;;;;;;;1.15;0.68;;;9.70;88.20;;;;;;5032427;28;20048;-77
2021/11/02 16:25:37;;;;;;;0.80;0.65;;;9.70;88.00;;;;;;4999970;28;20030;-78
2021/11/02 16:28:30;;;;;;;1.10;0.75;;;9.70;87.60;;;;;;4993638;28;20031;-78
2021/11/02 16:31:03;;;;;;;2.88;0.70;;;9.70;87.60;;;;;;4975688;28;20011;-79
2021/11/02 16:33:36;;;;;;;1.20;0.75;;;9.60;87.50;;;;;;5008496;28;20571;-79
2021/11/02 16:36:37;;;;;;;2.50;1.13;;;9.60;87.50;;;;;;5008867;28;20061;-78
2021/11/02 16:39:13;;;;;;;3.65;1.10;;;9.50;87.90;;;;;;5009850;28;20049;-80
2021/11/02 16:41:53;;;;;;;1.67;0.85;;;9.40;88.40;;;;;;5007723;28;20022;-78
2021/11/02 16:44:30;;;;;;;2.55;1.05;;;9.40;88.80;;;;;;5009690;28;20078;-79
2021/11/02 16:47:05;;;;;;;2.50;0.65;;;9.40;88.80;;;;;;5001400;28;20031;-77
2021/11/02 16:49:32;;;;;;;2.33;0.68;;;9.40;88.90;;;;;;4991739;28;20030;-80
2021/11/02 16:51:58;;;;;;;3.33;0.85;;;9.40;88.90;;;;;;5011368;28;20057;-79
2021/11/02 16:54:31;;;;;;;2.20;0.80;;;9.40;89.00;;;;;;4998470;28;20134;-78
2021/11/02 16:57:08;;;;;;;1.70;0.82;;;9.40;89.00;;;;;;4992804;28;20035;-79
2021/11/02 16:59:40;;;;;;;3.03;1.88;;;9.40;89.20;;;;;;4991636;28;20054;-78
2021/11/02 17:02:18;;;;;;;1.75;1.05;;;9.40;89.30;;;;;;4992782;28;20007;-78
2021/11/02 17:05:16;;;;;;;2.17;0.95;;;9.40;89.20;;;;;;5005289;28;20030;-77
2021/11/02 17:08:03;;;;;;;1.85;1.00;;;9.50;89.20;;;;;;5005707;28;20129;-79
2021/11/02 17:10:31;;;;;;;1.67;0.93;;;9.40;89.00;;;;;;5011468;28;20023;-77
2021/11/02 17:13:06;;;;;;;2.85;0.95;;;9.40;88.90;;;;;;4993552;28;20380;-78
2021/11/02 17:15:34;;;;;;;0.90;0.70;;;9.40;88.90;;;;;;4992899;28;20132;-77
2021/11/02 17:18:03;;;;;;;1.63;0.88;;;9.40;89.00;;;;;;4994878;28;20029;-78
2021/11/02 17:20:29;;;;;;;1.45;0.63;;;9.30;89.10;;;;;;5005303;28;20547;-76
2021/11/02 17:22:55;;;;;;;1.23;0.60;;;9.30;89.60;;;;;;4993944;28;20041;-77
2021/11/02 17:25:22;;;;;;;0.65;0.65;;;9.20;89.90;;;;;;4998395;28;20463;-78
2021/11/02 17:27:50;;;;;;;2.55;1.25;;;9.10;90.10;;;;;;4997838;28;20431;-78
2021/11/02 17:30:21;;;;;;;1.83;0.98;;;9.00;90.30;;;;;;4997411;28;20667;-78
2021/11/02 17:32:51;;;;;;;2.58;0.68;;;8.90;90.50;;;;;;4997850;28;20045;-78
2021/11/02 17:35:20;;;;;;;3.38;1.20;;;8.90;90.70;;;;;;4998323;28;20109;-78
2021/11/02 17:37:49;;;;;;;1.77;1.00;;;8.80;90.90;;;;;;4999271;28;20057;-79
2021/11/02 17:40:16;;;;;;;3.90;1.73;;;8.80;91.10;;;;;;4999204;28;20075;-79
2021/11/02 17:42:44;;;;;;;2.72;1.55;;;8.70;91.30;;;;;;4997332;28;20045;-77
2021/11/02 17:45:11;;;;;;;1.33;0.80;;;8.60;91.40;;;;;;4997114;28;20072;-77
2021/11/02 17:47:39;;;;;;;0.73;0.73;;;8.60;91.60;;;;;;5000531;28;20422;-78
2021/11/02 17:50:06;;;;;;;1.80;0.80;;;8.50;91.90;;;;;;5006189;28;20026;-79
2021/11/02 17:52:32;;;;;;;0.80;0.80;;;8.50;92.10;;;;;;4999509;28;20038;-78
2021/11/02 17:54:58;;;;;;;1.35;0.73;;;8.40;92.20;;;;;;5001236;28;20026;-79
2021/11/02 17:57:25;;;;;;;1.38;0.73;;;8.40;92.30;;;;;;4998782;28;20033;-77
2021/11/02 17:59:51;;;;;;;0.88;0.70;;;8.30;92.40;;;;;;4983453;28;20121;-78
2021/11/02 18:02:17;;;;;;;2.60;0.70;;;8.30;92.60;;;;;;4998522;28;20065;-77
2021/11/02 18:04:45;;;;;;;3.40;0.88;;;8.30;92.80;;;;;;5002115;28;20064;-78
2021/11/02 18:07:11;;;;;;;2.63;1.00;;;8.30;92.90;;;;;;4985815;28;20030;-77
2021/11/02 18:09:38;;;;;;;3.05;1.35;;;8.30;92.90;;;;;;4983771;28;20023;-78
2021/11/02 18:12:04;;;;;;;2.53;1.02;;;8.20;92.90;;;;;;4982669;28;20022;-77
2021/11/02 18:14:31;;;;;;;1.92;1.17;;;8.20;93.00;;;;;;4983407;28;20379;-77
2021/11/02 18:16:57;;;;;;;1.70;1.20;;;8.20;93.10;;;;;;5002163;28;20388;-79
2021/11/02 18:19:24;;;;;;;1.77;1.20;;;8.10;93.20;;;;;;5006354;28;20078;-79